Perryton, Illinois
Current Conditions -  °F | °C
As of 5:52 PM on Thursday 27 Nov 2014 (Local Time) from KMLI Reporting Station
Clear Clear  
Wind Chill:   Ceiling: Unl
Heat Index: 15°   Visibility: 10mi
Dew Point:   Wind: 10mph
Humidity: 64%   Direction: 280°W
Pressure: 30.46"   Gusts: NA
Location:  41.343°N, 90.7388°W
Report Text: KMLI 272352Z 28009KT 10SM CLR M09/M15 A3046 RMK AO2 SLP324 T10941150 11061 21094 51007 $
Loading
Personal Weather Stations






























Interactive Weather Map New forecast layout! Learn more

10-Day Weather Forecast

Advertisements
Track Severe Weather on mobile